createdAt,value
2024-03-27T00:02:00.836Z,5.20
2024-03-27T00:07:03.741Z,5.10
2024-03-27T00:12:07.194Z,5.30
2024-03-27T00:17:10.112Z,4.40
2024-03-27T00:22:12.960Z,5.00
2024-03-27T00:27:15.768Z,5.00
2024-03-27T00:32:18.885Z,4.90
2024-03-27T00:37:21.905Z,4.50
2024-03-27T00:42:25.403Z,5.00
2024-03-27T00:47:28.306Z,5.10
2024-03-27T00:52:31.210Z,4.40
2024-03-27T00:57:34.115Z,5.20
2024-03-27T01:02:37.018Z,4.50
2024-03-27T01:07:40.330Z,4.90
2024-03-27T01:12:43.240Z,5.90
2024-03-27T01:17:47.570Z,4.70
2024-03-27T01:22:50.579Z,5.80
2024-03-27T01:27:53.587Z,5.80
2024-03-27T01:32:58.342Z,5.50
2024-03-27T01:38:01.233Z,5.10
2024-03-27T01:43:04.455Z,4.00
2024-03-27T01:48:08.808Z,4.80
2024-03-27T01:53:14.747Z,5.00
2024-03-27T01:58:18.178Z,5.50
2024-03-27T02:03:21.083Z,5.80
2024-03-27T02:08:24.090Z,5.60
2024-03-27T02:13:27.000Z,4.40
2024-03-27T02:18:29.911Z,5.40
2024-03-27T02:23:40.787Z,5.40
2024-03-27T02:28:46.869Z,4.90
2024-03-27T02:33:49.771Z,5.60
2024-03-27T02:38:52.778Z,5.60
2024-03-27T02:43:55.985Z,5.50
2024-03-27T02:48:58.997Z,3.90
2024-03-27T02:54:01.902Z,5.70
2024-03-27T02:59:05.315Z,5.30
2024-03-27T03:04:08.226Z,6.00
2024-03-27T03:09:11.025Z,5.20
2024-03-27T03:14:13.830Z,5.30
2024-03-27T03:19:17.140Z,5.00
2024-03-27T03:24:19.941Z,4.90
2024-03-27T03:29:22.845Z,5.30
2024-03-27T03:34:25.851Z,5.60
2024-03-27T03:39:28.761Z,5.60
2024-03-27T03:44:31.664Z,5.30
2024-03-27T03:49:34.661Z,5.40
2024-03-27T03:54:37.678Z,4.40
2024-03-27T03:59:40.790Z,5.20
2024-03-27T04:04:43.687Z,5.30
2024-03-27T04:09:46.692Z,5.80
2024-03-27T04:14:53.090Z,3.80
2024-03-27T04:20:00.348Z,3.80
2024-03-27T04:25:04.812Z,5.20
2024-03-27T04:30:08.838Z,4.20
2024-03-27T04:35:11.770Z,4.30
2024-03-27T04:40:14.669Z,4.60
2024-03-27T04:45:17.579Z,4.20
2024-03-27T04:50:20.483Z,4.10
2024-03-27T04:55:23.479Z,4.00
2024-03-27T05:00:26.691Z,4.10
2024-03-27T05:05:29.491Z,4.50
2024-03-27T05:10:32.501Z,4.40
2024-03-27T05:15:35.310Z,4.20
2024-03-27T05:20:38.175Z,4.40
2024-03-27T05:25:41.113Z,4.00
2024-03-27T05:30:44.013Z,4.60
2024-03-27T05:35:46.916Z,3.70
2024-03-27T05:40:49.824Z,4.10
2024-03-27T05:45:53.685Z,4.80
2024-03-27T05:50:57.677Z,4.80
2024-03-27T05:56:00.895Z,4.30
2024-03-27T06:01:04.206Z,4.60
2024-03-27T06:06:07.418Z,4.60
2024-03-27T06:11:10.528Z,4.00
2024-03-27T06:16:13.742Z,3.90
2024-03-27T06:21:18.476Z,4.30
2024-03-27T06:26:22.826Z,4.70
2024-03-27T06:31:27.063Z,5.00
2024-03-27T06:36:30.072Z,4.60
2024-03-27T06:41:35.938Z,4.60
2024-03-27T06:46:39.163Z,5.30
2024-03-27T06:51:42.180Z,4.80
2024-03-27T06:56:45.786Z,4.70
2024-03-27T07:01:49.117Z,5.10
2024-03-27T07:06:52.097Z,4.50
2024-03-27T07:11:55.313Z,4.70
2024-03-27T07:16:58.209Z,4.50
2024-03-27T07:22:01.480Z,4.20
2024-03-27T07:27:04.639Z,3.50
2024-03-27T07:32:08.463Z,4.30
2024-03-27T07:37:11.470Z,3.60
2024-03-27T07:42:14.328Z,4.50
2024-03-27T07:47:17.281Z,3.60
2024-03-27T07:52:20.180Z,3.70
2024-03-27T07:57:23.497Z,3.90
2024-03-27T08:02:26.601Z,3.40
2024-03-27T08:07:29.576Z,4.30
2024-03-27T08:12:32.646Z,8.20
2024-03-27T08:17:35.724Z,4.20
2024-03-27T08:22:40.847Z,3.90
2024-03-27T08:27:43.750Z,4.40
2024-03-27T08:32:46.688Z,3.60
2024-03-27T08:37:54.890Z,4.10
2024-03-27T08:43:03.717Z,3.40
2024-03-27T08:48:06.856Z,4.30
2024-03-27T08:53:09.682Z,3.70
2024-03-27T08:58:12.631Z,4.30
2024-03-27T09:03:15.589Z,3.60
2024-03-27T09:08:18.590Z,4.20
2024-03-27T09:13:21.699Z,4.00
2024-03-27T09:18:24.601Z,3.80
2024-03-27T09:23:30.909Z,4.10
2024-03-27T09:28:33.790Z,4.10
2024-03-27T09:33:36.825Z,3.80
2024-03-27T09:38:39.807Z,3.50
2024-03-27T09:43:45.448Z,3.80
2024-03-27T09:48:51.147Z,3.50
2024-03-27T09:53:54.049Z,3.10
2024-03-27T09:58:58.701Z,4.20
2024-03-27T10:04:01.812Z,4.30
2024-03-27T10:09:08.034Z,4.70
2024-03-27T10:14:13.656Z,5.00
2024-03-27T10:19:16.564Z,4.20
2024-03-27T10:24:19.891Z,3.80
2024-03-27T10:29:22.780Z,3.70
2024-03-27T10:34:25.632Z,3.70
2024-03-27T10:39:33.196Z,3.50
2024-03-27T10:44:37.238Z,4.70
2024-03-27T10:49:42.157Z,4.90
2024-03-27T10:54:46.669Z,4.30
2024-03-27T10:59:55.778Z,3.90
2024-03-27T11:05:02.894Z,3.90
2024-03-27T11:10:06.467Z,4.20
2024-03-27T11:15:11.453Z,3.20
2024-03-27T11:20:15.596Z,3.50
2024-03-27T11:25:23.458Z,3.70
2024-03-27T11:30:28.546Z,3.40
2024-03-27T11:35:32.377Z,3.30
2024-03-27T11:40:35.735Z,3.10
2024-03-27T11:45:39.058Z,2.80
2024-03-27T11:50:43.032Z,3.30
2024-03-27T11:55:54.095Z,3.10
2024-03-27T12:01:00.426Z,2.90
2024-03-27T12:06:05.455Z,2.70
2024-03-27T12:11:11.716Z,2.50
2024-03-27T12:16:15.121Z,2.80
2024-03-27T12:21:17.992Z,2.90
2024-03-27T12:26:23.852Z,2.80
2024-03-27T12:31:29.334Z,3.10
2024-03-27T12:36:34.366Z,2.80
2024-03-27T12:41:37.370Z,2.60
2024-03-27T12:46:40.277Z,3.20
2024-03-27T12:51:43.195Z,2.60
2024-03-27T12:56:46.264Z,2.80
2024-03-27T13:01:49.409Z,3.00
2024-03-27T13:06:52.341Z,3.70
2024-03-27T13:11:55.422Z,3.60
2024-03-27T13:16:58.624Z,2.60
2024-03-27T13:22:02.150Z,2.60
2024-03-27T13:27:05.970Z,2.60
2024-03-27T13:32:11.966Z,2.80
2024-03-27T13:37:15.928Z,2.70
2024-03-27T13:42:19.091Z,2.90
2024-03-27T13:47:22.105Z,3.30
2024-03-27T13:52:25.202Z,2.50
2024-03-27T13:57:28.318Z,2.60
2024-03-27T14:02:31.378Z,2.90
2024-03-27T14:07:35.139Z,3.10
2024-03-27T14:12:38.357Z,2.80
2024-03-27T14:17:41.681Z,2.40
2024-03-27T14:22:46.985Z,2.30
2024-03-27T14:27:51.715Z,2.90
2024-03-27T14:32:54.783Z,2.30
2024-03-27T14:37:57.791Z,3.80
2024-03-27T14:43:00.895Z,2.70
2024-03-27T14:48:04.645Z,2.50
2024-03-27T14:53:08.021Z,3.10
2024-03-27T14:58:10.944Z,2.70
2024-03-27T15:03:14.986Z,2.40
2024-03-27T15:08:21.153Z,2.50
2024-03-27T15:13:24.362Z,3.00
2024-03-27T15:18:27.680Z,2.50
2024-03-27T15:23:30.892Z,2.20
2024-03-27T15:28:34.224Z,2.50
2024-03-27T15:33:37.518Z,2.40
2024-03-27T15:38:40.330Z,2.20
2024-03-27T15:43:43.527Z,2.60
2024-03-27T15:48:46.637Z,2.40
2024-03-27T15:53:49.645Z,2.40
2024-03-27T15:58:52.960Z,2.20
2024-03-27T16:03:58.648Z,2.10
2024-03-27T16:09:05.012Z,2.20
2024-03-27T16:14:07.923Z,2.20
2024-03-27T16:19:10.824Z,2.10
2024-03-27T16:24:14.043Z,2.60
2024-03-27T16:29:16.936Z,2.20
2024-03-27T16:34:19.849Z,2.10
2024-03-27T16:39:25.848Z,2.30
2024-03-27T16:44:35.658Z,1.90
2024-03-27T16:49:38.927Z,2.20
2024-03-27T16:54:45.591Z,2.60
2024-03-27T16:59:48.596Z,2.40
2024-03-27T17:04:51.516Z,2.00
2024-03-27T17:09:55.569Z,2.40
2024-03-27T17:14:58.847Z,2.40
2024-03-27T17:20:01.980Z,2.50
2024-03-27T17:25:05.533Z,2.10
2024-03-27T17:30:09.027Z,2.50
2024-03-27T17:35:12.007Z,2.60
2024-03-27T17:40:15.421Z,2.10
2024-03-27T17:45:18.321Z,2.40
2024-03-27T17:50:21.242Z,2.30
2024-03-27T17:55:24.643Z,2.30
2024-03-27T18:00:28.502Z,2.30
2024-03-27T18:05:31.370Z,2.40
2024-03-27T18:10:34.493Z,2.70
2024-03-27T18:15:38.572Z,2.40
2024-03-27T18:20:42.869Z,2.40
2024-03-27T18:25:45.857Z,2.60
2024-03-27T18:30:58.062Z,2.30
2024-03-27T18:36:01.422Z,2.40
2024-03-27T18:41:04.519Z,2.40
2024-03-27T18:46:07.616Z,2.20
2024-03-27T18:51:10.534Z,2.50
2024-03-27T18:56:13.547Z,2.20
2024-03-27T19:01:16.542Z,2.30
2024-03-27T19:06:19.746Z,2.50
2024-03-27T19:11:27.986Z,2.10
2024-03-27T19:16:38.621Z,2.60
2024-03-27T19:21:41.479Z,2.70
2024-03-27T19:26:44.774Z,2.80
2024-03-27T19:31:47.882Z,2.30
2024-03-27T19:36:51.844Z,2.60
2024-03-27T19:41:55.029Z,2.30
2024-03-27T19:46:59.488Z,2.40
2024-03-27T19:52:14.442Z,2.30
2024-03-27T19:57:21.760Z,2.30
2024-03-27T20:02:24.981Z,2.40
2024-03-27T20:07:31.208Z,3.00
2024-03-27T20:12:35.284Z,2.40
2024-03-27T20:17:38.307Z,2.60
2024-03-27T20:22:41.404Z,2.70
2024-03-27T20:27:44.303Z,2.50
2024-03-27T20:32:47.204Z,2.30
2024-03-27T20:37:50.085Z,2.60
2024-03-27T20:42:53.017Z,2.50
2024-03-27T20:47:55.922Z,2.40
2024-03-27T20:52:59.075Z,2.40
2024-03-27T20:58:02.138Z,2.40
2024-03-27T21:03:06.052Z,2.30
2024-03-27T21:08:09.284Z,3.10
2024-03-27T21:13:12.177Z,2.60
2024-03-27T21:18:15.188Z,2.80
2024-03-27T21:23:18.208Z,2.70
2024-03-27T21:28:21.342Z,2.60
2024-03-27T21:33:24.630Z,2.90
2024-03-27T21:38:27.929Z,2.50
2024-03-27T21:43:31.472Z,3.10
2024-03-27T21:48:34.998Z,2.20
2024-03-27T21:53:37.871Z,2.90
2024-03-27T21:58:40.625Z,3.20
2024-03-27T22:03:43.578Z,2.70
2024-03-27T22:08:46.480Z,2.90
2024-03-27T22:13:50.114Z,3.00
2024-03-27T22:18:53.148Z,2.20
2024-03-27T22:23:56.527Z,2.60
2024-03-27T22:28:59.537Z,2.70
2024-03-27T22:34:02.473Z,2.70
2024-03-27T22:39:05.343Z,2.80
2024-03-27T22:44:08.250Z,2.40
2024-03-27T22:49:11.180Z,2.70
2024-03-27T22:54:15.493Z,2.60
2024-03-27T22:59:18.408Z,3.30
2024-03-27T23:04:21.647Z,2.20
2024-03-27T23:09:24.518Z,3.20
2024-03-27T23:14:27.411Z,3.00
2024-03-27T23:19:30.317Z,2.50
2024-03-27T23:24:33.321Z,3.00
2024-03-27T23:29:36.128Z,3.10
2024-03-27T23:34:39.028Z,2.60
2024-03-27T23:39:41.830Z,2.60
2024-03-27T23:44:44.732Z,2.80
2024-03-27T23:49:47.640Z,2.80
2024-03-27T23:54:50.540Z,2.90
2024-03-27T23:59:54.679Z,3.40
